sensor_id;sensor_type;location;lat;lon;timestamp;P1;durP1;ratioP1;P2;durP2;ratioP2
40471;SDS011;26174;42.908;23.800;2023-02-18T00:01:17;77.63;;;33.65;;
40471;SDS011;26174;42.908;23.800;2023-02-18T00:03:44;69.88;;;30.35;;
40471;SDS011;26174;42.908;23.800;2023-02-18T00:06:14;68.95;;;27.10;;
40471;SDS011;26174;42.908;23.800;2023-02-18T00:08:46;81.20;;;29.02;;
40471;SDS011;26174;42.908;23.800;2023-02-18T00:11:12;65.32;;;28.40;;
40471;SDS011;26174;42.908;23.800;2023-02-18T00:13:39;75.90;;;29.52;;
40471;SDS011;26174;42.908;23.800;2023-02-18T00:16:06;86.57;;;30.88;;
40471;SDS011;26174;42.908;23.800;2023-02-18T00:18:32;79.28;;;31.05;;
40471;SDS011;26174;42.908;23.800;2023-02-18T00:20:58;73.70;;;29.90;;
40471;SDS011;26174;42.908;23.800;2023-02-18T00:23:24;84.15;;;32.30;;
40471;SDS011;26174;42.908;23.800;2023-02-18T00:25:57;79.03;;;31.13;;
40471;SDS011;26174;42.908;23.800;2023-02-18T00:28:24;84.45;;;30.95;;
40471;SDS011;26174;42.908;23.800;2023-02-18T00:30:49;72.30;;;31.08;;
40471;SDS011;26174;42.908;23.800;2023-02-18T00:33:15;71.80;;;31.25;;
40471;SDS011;26174;42.908;23.800;2023-02-18T00:35:40;100.45;;;34.88;;
40471;SDS011;26174;42.908;23.800;2023-02-18T00:38:06;92.38;;;33.40;;
40471;SDS011;26174;42.908;23.800;2023-02-18T00:40:32;104.15;;;37.92;;
40471;SDS011;26174;42.908;23.800;2023-02-18T00:43:03;92.45;;;34.28;;
40471;SDS011;26174;42.908;23.800;2023-02-18T00:45:29;100.40;;;35.15;;
40471;SDS011;26174;42.908;23.800;2023-02-18T00:47:54;91.10;;;34.65;;
40471;SDS011;26174;42.908;23.800;2023-02-18T00:50:20;112.50;;;37.67;;
40471;SDS011;26174;42.908;23.800;2023-02-18T00:52:46;100.28;;;36.47;;
40471;SDS011;26174;42.908;23.800;2023-02-18T00:55:11;84.63;;;33.60;;
40471;SDS011;26174;42.908;23.800;2023-02-18T00:57:37;89.63;;;33.92;;
40471;SDS011;26174;42.908;23.800;2023-02-18T01:00:03;89.57;;;34.20;;
40471;SDS011;26174;42.908;23.800;2023-02-18T01:02:30;83.82;;;32.88;;
40471;SDS011;26174;42.908;23.800;2023-02-18T01:04:55;119.13;;;42.45;;
40471;SDS011;26174;42.908;23.800;2023-02-18T01:07:21;98.90;;;39.60;;
40471;SDS011;26174;42.908;23.800;2023-02-18T01:09:46;86.07;;;35.30;;
40471;SDS011;26174;42.908;23.800;2023-02-18T01:12:12;92.45;;;36.60;;
40471;SDS011;26174;42.908;23.800;2023-02-18T01:14:37;82.72;;;35.15;;
40471;SDS011;26174;42.908;23.800;2023-02-18T01:17:03;74.35;;;31.77;;
40471;SDS011;26174;42.908;23.800;2023-02-18T01:19:28;81.95;;;33.13;;
40471;SDS011;26174;42.908;23.800;2023-02-18T01:21:54;78.32;;;32.40;;
40471;SDS011;26174;42.908;23.800;2023-02-18T01:24:19;65.47;;;28.73;;
40471;SDS011;26174;42.908;23.800;2023-02-18T01:26:45;58.58;;;25.08;;
40471;SDS011;26174;42.908;23.800;2023-02-18T01:29:10;47.08;;;20.25;;
40471;SDS011;26174;42.908;23.800;2023-02-18T01:31:36;44.05;;;19.65;;
40471;SDS011;26174;42.908;23.800;2023-02-18T01:34:01;50.67;;;19.58;;
40471;SDS011;26174;42.908;23.800;2023-02-18T01:36:27;50.28;;;20.05;;
40471;SDS011;26174;42.908;23.800;2023-02-18T01:38:52;57.22;;;21.77;;
40471;SDS011;26174;42.908;23.800;2023-02-18T01:41:19;57.35;;;23.13;;
40471;SDS011;26174;42.908;23.800;2023-02-18T01:43:44;56.95;;;24.13;;
40471;SDS011;26174;42.908;23.800;2023-02-18T01:46:15;46.03;;;22.13;;
40471;SDS011;26174;42.908;23.800;2023-02-18T01:56:22;31.80;;;14.82;;
40471;SDS011;26174;42.908;23.800;2023-02-18T01:58:50;41.33;;;16.73;;
40471;SDS011;26174;42.908;23.800;2023-02-18T02:01:17;39.85;;;17.83;;
40471;SDS011;26174;42.908;23.800;2023-02-18T02:03:43;38.58;;;17.70;;
40471;SDS011;26174;42.908;23.800;2023-02-18T02:06:11;46.88;;;19.58;;
40471;SDS011;26174;42.908;23.800;2023-02-18T02:08:40;32.00;;;14.60;;
40471;SDS011;26174;42.908;23.800;2023-02-18T02:14:09;44.88;;;19.40;;
40471;SDS011;26174;42.908;23.800;2023-02-18T02:19:35;41.55;;;18.02;;
40471;SDS011;26174;42.908;23.800;2023-02-18T02:22:30;36.75;;;15.85;;
40471;SDS011;26174;42.908;23.800;2023-02-18T02:38:54;29.42;;;12.50;;
40471;SDS011;26174;42.908;23.800;2023-02-18T02:44:30;37.20;;;15.48;;
40471;SDS011;26174;42.908;23.800;2023-02-18T02:46:51;37.78;;;16.30;;
40471;SDS011;26174;42.908;23.800;2023-02-18T02:52:10;43.08;;;16.75;;
40471;SDS011;26174;42.908;23.800;2023-02-18T02:54:37;50.58;;;19.10;;
40471;SDS011;26174;42.908;23.800;2023-02-18T03:00:00;45.28;;;19.05;;
40471;SDS011;26174;42.908;23.800;2023-02-18T03:11:04;55.75;;;21.33;;
40471;SDS011;26174;42.908;23.800;2023-02-18T03:21:51;38.22;;;16.05;;
40471;SDS011;26174;42.908;23.800;2023-02-18T03:24:31;43.38;;;16.70;;
40471;SDS011;26174;42.908;23.800;2023-02-18T03:29:44;34.78;;;13.85;;
40471;SDS011;26174;42.908;23.800;2023-02-18T03:32:11;34.72;;;14.18;;
40471;SDS011;26174;42.908;23.800;2023-02-18T03:34:39;33.55;;;14.02;;
40471;SDS011;26174;42.908;23.800;2023-02-18T03:37:08;35.25;;;14.73;;
40471;SDS011;26174;42.908;23.800;2023-02-18T03:39:34;38.58;;;14.52;;
40471;SDS011;26174;42.908;23.800;2023-02-18T03:42:01;37.85;;;16.60;;
40471;SDS011;26174;42.908;23.800;2023-02-18T03:44:26;19.48;;;9.07;;
40471;SDS011;26174;42.908;23.800;2023-02-18T03:46:52;34.67;;;14.10;;
40471;SDS011;26174;42.908;23.800;2023-02-18T03:49:17;38.35;;;15.15;;
40471;SDS011;26174;42.908;23.800;2023-02-18T03:51:43;37.35;;;15.55;;
40471;SDS011;26174;42.908;23.800;2023-02-18T03:54:09;26.25;;;12.13;;
40471;SDS011;26174;42.908;23.800;2023-02-18T03:56:35;30.52;;;13.13;;
40471;SDS011;26174;42.908;23.800;2023-02-18T03:59:01;32.83;;;13.40;;
40471;SDS011;26174;42.908;23.800;2023-02-18T04:01:27;34.70;;;12.57;;
40471;SDS011;26174;42.908;23.800;2023-02-18T04:03:53;31.70;;;12.27;;
40471;SDS011;26174;42.908;23.800;2023-02-18T04:06:20;27.10;;;12.85;;
40471;SDS011;26174;42.908;23.800;2023-02-18T04:08:55;25.10;;;12.77;;
40471;SDS011;26174;42.908;23.800;2023-02-18T04:11:21;28.55;;;11.73;;
40471;SDS011;26174;42.908;23.800;2023-02-18T04:13:46;22.73;;;10.80;;
40471;SDS011;26174;42.908;23.800;2023-02-18T04:16:12;22.70;;;10.82;;
40471;SDS011;26174;42.908;23.800;2023-02-18T04:18:37;24.35;;;9.45;;
40471;SDS011;26174;42.908;23.800;2023-02-18T04:21:03;24.23;;;9.57;;
40471;SDS011;26174;42.908;23.800;2023-02-18T04:23:29;95.05;;;47.63;;
40471;SDS011;26174;42.908;23.800;2023-02-18T04:25:54;90.03;;;38.83;;
40471;SDS011;26174;42.908;23.800;2023-02-18T04:28:20;43.42;;;17.50;;
40471;SDS011;26174;42.908;23.800;2023-02-18T04:30:46;50.28;;;19.60;;
40471;SDS011;26174;42.908;23.800;2023-02-18T04:33:12;87.82;;;29.17;;
40471;SDS011;26174;42.908;23.800;2023-02-18T04:35:37;43.80;;;16.95;;
40471;SDS011;26174;42.908;23.800;2023-02-18T04:38:05;25.48;;;9.90;;
40471;SDS011;26174;42.908;23.800;2023-02-18T04:40:31;18.77;;;8.75;;
40471;SDS011;26174;42.908;23.800;2023-02-18T04:42:57;28.90;;;11.85;;
40471;SDS011;26174;42.908;23.800;2023-02-18T04:45:23;36.63;;;15.88;;
40471;SDS011;26174;42.908;23.800;2023-02-18T04:47:49;70.32;;;23.83;;
40471;SDS011;26174;42.908;23.800;2023-02-18T04:50:14;101.95;;;34.33;;
40471;SDS011;26174;42.908;23.800;2023-02-18T04:52:40;74.63;;;25.67;;
40471;SDS011;26174;42.908;23.800;2023-02-18T04:55:06;39.05;;;16.58;;
40471;SDS011;26174;42.908;23.800;2023-02-18T04:57:31;45.75;;;15.73;;
40471;SDS011;26174;42.908;23.800;2023-02-18T04:59:57;27.13;;;10.65;;
40471;SDS011;26174;42.908;23.800;2023-02-18T05:02:22;25.33;;;10.02;;
40471;SDS011;26174;42.908;23.800;2023-02-18T05:04:48;26.13;;;9.85;;
40471;SDS011;26174;42.908;23.800;2023-02-18T05:07:13;30.20;;;11.60;;
40471;SDS011;26174;42.908;23.800;2023-02-18T05:09:39;34.15;;;11.88;;
40471;SDS011;26174;42.908;23.800;2023-02-18T05:12:05;33.47;;;10.95;;
40471;SDS011;26174;42.908;23.800;2023-02-18T05:14:30;29.50;;;13.15;;
40471;SDS011;26174;42.908;23.800;2023-02-18T05:16:56;26.70;;;12.43;;
40471;SDS011;26174;42.908;23.800;2023-02-18T05:19:21;32.50;;;14.45;;
40471;SDS011;26174;42.908;23.800;2023-02-18T05:21:47;28.30;;;11.65;;
40471;SDS011;26174;42.908;23.800;2023-02-18T05:24:13;32.25;;;14.10;;
40471;SDS011;26174;42.908;23.800;2023-02-18T05:26:38;20.90;;;9.80;;
40471;SDS011;26174;42.908;23.800;2023-02-18T05:29:04;28.15;;;12.88;;
40471;SDS011;26174;42.908;23.800;2023-02-18T05:31:29;24.70;;;10.70;;
40471;SDS011;26174;42.908;23.800;2023-02-18T05:33:55;38.65;;;15.07;;
40471;SDS011;26174;42.908;23.800;2023-02-18T05:36:20;103.35;;;42.55;;
40471;SDS011;26174;42.908;23.800;2023-02-18T05:38:46;84.95;;;36.05;;
40471;SDS011;26174;42.908;23.800;2023-02-18T05:41:11;58.45;;;25.45;;
40471;SDS011;26174;42.908;23.800;2023-02-18T05:43:37;47.58;;;18.33;;
40471;SDS011;26174;42.908;23.800;2023-02-18T05:46:21;66.57;;;27.15;;
40471;SDS011;26174;42.908;23.800;2023-02-18T05:48:48;89.70;;;36.38;;
40471;SDS011;26174;42.908;23.800;2023-02-18T05:51:13;61.08;;;25.95;;
40471;SDS011;26174;42.908;23.800;2023-02-18T05:53:39;61.13;;;26.15;;
40471;SDS011;26174;42.908;23.800;2023-02-18T05:56:05;73.53;;;28.40;;
40471;SDS011;26174;42.908;23.800;2023-02-18T05:58:31;68.63;;;27.20;;
40471;SDS011;26174;42.908;23.800;2023-02-18T06:00:56;68.30;;;26.95;;
40471;SDS011;26174;42.908;23.800;2023-02-18T06:03:22;33.63;;;13.98;;
40471;SDS011;26174;42.908;23.800;2023-02-18T06:05:51;38.35;;;14.38;;
40471;SDS011;26174;42.908;23.800;2023-02-18T06:08:16;72.15;;;27.80;;
40471;SDS011;26174;42.908;23.800;2023-02-18T06:10:44;65.10;;;24.58;;
40471;SDS011;26174;42.908;23.800;2023-02-18T06:13:10;56.75;;;25.00;;
40471;SDS011;26174;42.908;23.800;2023-02-18T06:15:35;57.75;;;23.90;;
40471;SDS011;26174;42.908;23.800;2023-02-18T06:18:02;42.70;;;17.92;;
40471;SDS011;26174;42.908;23.800;2023-02-18T06:20:29;62.53;;;25.95;;
40471;SDS011;26174;42.908;23.800;2023-02-18T06:22:54;49.88;;;21.83;;
40471;SDS011;26174;42.908;23.800;2023-02-18T06:25:20;49.75;;;20.80;;
40471;SDS011;26174;42.908;23.800;2023-02-18T06:30:46;33.97;;;14.43;;
40471;SDS011;26174;42.908;23.800;2023-02-18T06:33:12;52.42;;;21.77;;
40471;SDS011;26174;42.908;23.800;2023-02-18T06:35:37;50.17;;;21.08;;
40471;SDS011;26174;42.908;23.800;2023-02-18T06:38:06;42.83;;;19.67;;
40471;SDS011;26174;42.908;23.800;2023-02-18T06:40:47;51.10;;;21.23;;
40471;SDS011;26174;42.908;23.800;2023-02-18T06:43:13;49.38;;;21.83;;
40471;SDS011;26174;42.908;23.800;2023-02-18T06:45:39;22.02;;;9.48;;
40471;SDS011;26174;42.908;23.800;2023-02-18T06:48:04;19.48;;;7.38;;
40471;SDS011;26174;42.908;23.800;2023-02-18T06:50:30;14.98;;;6.85;;
40471;SDS011;26174;42.908;23.800;2023-02-18T06:52:56;11.70;;;5.60;;
40471;SDS011;26174;42.908;23.800;2023-02-18T06:55:21;11.77;;;5.28;;
40471;SDS011;26174;42.908;23.800;2023-02-18T06:58:08;12.80;;;5.28;;
40471;SDS011;26174;42.908;23.800;2023-02-18T07:00:33;11.40;;;5.70;;
40471;SDS011;26174;42.908;23.800;2023-02-18T07:02:59;16.30;;;8.48;;
40471;SDS011;26174;42.908;23.800;2023-02-18T07:05:25;17.38;;;8.70;;
40471;SDS011;26174;42.908;23.800;2023-02-18T07:07:50;14.57;;;7.03;;
40471;SDS011;26174;42.908;23.800;2023-02-18T07:10:16;16.02;;;7.40;;
40471;SDS011;26174;42.908;23.800;2023-02-18T07:12:42;9.77;;;5.28;;
40471;SDS011;26174;42.908;23.800;2023-02-18T07:15:07;12.45;;;6.35;;
40471;SDS011;26174;42.908;23.800;2023-02-18T07:17:33;13.15;;;6.53;;
40471;SDS011;26174;42.908;23.800;2023-02-18T07:21:46;8.25;;;4.30;;
40471;SDS011;26174;42.908;23.800;2023-02-18T07:24:12;13.85;;;6.35;;
40471;SDS011;26174;42.908;23.800;2023-02-18T07:26:37;8.38;;;3.20;;
40471;SDS011;26174;42.908;23.800;2023-02-18T07:29:03;10.77;;;5.60;;
40471;SDS011;26174;42.908;23.800;2023-02-18T07:31:28;31.73;;;11.40;;
40471;SDS011;26174;42.908;23.800;2023-02-18T07:33:57;8.75;;;4.57;;
40471;SDS011;26174;42.908;23.800;2023-02-18T07:36:22;7.68;;;4.57;;
40471;SDS011;26174;42.908;23.800;2023-02-18T07:38:48;7.43;;;3.90;;
40471;SDS011;26174;42.908;23.800;2023-02-18T07:41:18;8.52;;;3.65;;
40471;SDS011;26174;42.908;23.800;2023-02-18T07:43:45;8.50;;;4.50;;
40471;SDS011;26174;42.908;23.800;2023-02-18T07:46:11;10.85;;;4.80;;
40471;SDS011;26174;42.908;23.800;2023-02-18T07:48:37;8.20;;;3.83;;
40471;SDS011;26174;42.908;23.800;2023-02-18T07:51:05;7.43;;;4.32;;
40471;SDS011;26174;42.908;23.800;2023-02-18T07:53:32;9.80;;;4.47;;
40471;SDS011;26174;42.908;23.800;2023-02-18T07:55:58;8.48;;;3.60;;
40471;SDS011;26174;42.908;23.800;2023-02-18T07:58:25;13.18;;;4.80;;
40471;SDS011;26174;42.908;23.800;2023-02-18T08:00:52;9.82;;;4.15;;
40471;SDS011;26174;42.908;23.800;2023-02-18T08:03:19;12.38;;;4.60;;
40471;SDS011;26174;42.908;23.800;2023-02-18T08:05:47;8.25;;;4.25;;
40471;SDS011;26174;42.908;23.800;2023-02-18T08:08:15;9.48;;;4.07;;
40471;SDS011;26174;42.908;23.800;2023-02-18T08:10:50;9.30;;;4.18;;
40471;SDS011;26174;42.908;23.800;2023-02-18T08:13:16;7.22;;;4.40;;
40471;SDS011;26174;42.908;23.800;2023-02-18T08:15:42;13.43;;;3.88;;
40471;SDS011;26174;42.908;23.800;2023-02-18T08:18:08;8.55;;;4.40;;
40471;SDS011;26174;42.908;23.800;2023-02-18T08:20:40;10.18;;;4.80;;
40471;SDS011;26174;42.908;23.800;2023-02-18T08:23:05;12.23;;;5.47;;
40471;SDS011;26174;42.908;23.800;2023-02-18T08:25:31;13.60;;;5.40;;
40471;SDS011;26174;42.908;23.800;2023-02-18T08:27:57;6.88;;;3.75;;
40471;SDS011;26174;42.908;23.800;2023-02-18T08:30:23;7.78;;;4.57;;
40471;SDS011;26174;42.908;23.800;2023-02-18T08:32:48;11.05;;;4.38;;
40471;SDS011;26174;42.908;23.800;2023-02-18T08:35:14;6.82;;;4.55;;
40471;SDS011;26174;42.908;23.800;2023-02-18T08:37:39;6.40;;;3.42;;
40471;SDS011;26174;42.908;23.800;2023-02-18T08:43:05;5.90;;;3.30;;
40471;SDS011;26174;42.908;23.800;2023-02-18T08:45:30;7.53;;;4.25;;
40471;SDS011;26174;42.908;23.800;2023-02-18T08:47:56;9.55;;;3.65;;
40471;SDS011;26174;42.908;23.800;2023-02-18T08:50:22;13.20;;;4.13;;
40471;SDS011;26174;42.908;23.800;2023-02-18T08:52:51;13.20;;;6.63;;
40471;SDS011;26174;42.908;23.800;2023-02-18T08:55:17;8.38;;;4.53;;
40471;SDS011;26174;42.908;23.800;2023-02-18T08:57:48;26.45;;;6.00;;
40471;SDS011;26174;42.908;23.800;2023-02-18T09:00:34;7.03;;;3.10;;
40471;SDS011;26174;42.908;23.800;2023-02-18T09:03:00;9.65;;;3.75;;
40471;SDS011;26174;42.908;23.800;2023-02-18T09:05:26;6.72;;;3.60;;
40471;SDS011;26174;42.908;23.800;2023-02-18T09:07:52;12.35;;;3.72;;
40471;SDS011;26174;42.908;23.800;2023-02-18T09:10:17;11.00;;;3.88;;
40471;SDS011;26174;42.908;23.800;2023-02-18T09:12:43;4.78;;;2.90;;
40471;SDS011;26174;42.908;23.800;2023-02-18T09:15:08;10.05;;;3.97;;
40471;SDS011;26174;42.908;23.800;2023-02-18T09:17:34;10.02;;;3.47;;
40471;SDS011;26174;42.908;23.800;2023-02-18T09:20:08;9.98;;;3.53;;
40471;SDS011;26174;42.908;23.800;2023-02-18T09:22:34;7.32;;;3.15;;
40471;SDS011;26174;42.908;23.800;2023-02-18T09:25:00;5.53;;;3.15;;
40471;SDS011;26174;42.908;23.800;2023-02-18T09:27:25;5.95;;;2.60;;
40471;SDS011;26174;42.908;23.800;2023-02-18T09:29:51;10.43;;;3.10;;
40471;SDS011;26174;42.908;23.800;2023-02-18T09:32:16;5.65;;;2.72;;
40471;SDS011;26174;42.908;23.800;2023-02-18T09:34:43;6.75;;;3.17;;
40471;SDS011;26174;42.908;23.800;2023-02-18T09:37:09;6.03;;;3.15;;
40471;SDS011;26174;42.908;23.800;2023-02-18T09:39:35;7.32;;;3.30;;
40471;SDS011;26174;42.908;23.800;2023-02-18T09:42:06;4.80;;;2.92;;
40471;SDS011;26174;42.908;23.800;2023-02-18T09:44:53;6.57;;;3.10;;
40471;SDS011;26174;42.908;23.800;2023-02-18T09:47:24;5.32;;;3.30;;
40471;SDS011;26174;42.908;23.800;2023-02-18T09:49:57;5.10;;;3.13;;
40471;SDS011;26174;42.908;23.800;2023-02-18T09:52:29;9.20;;;3.35;;
40471;SDS011;26174;42.908;23.800;2023-02-18T09:54:57;8.43;;;3.50;;
40471;SDS011;26174;42.908;23.800;2023-02-18T09:57:32;11.02;;;3.50;;
40471;SDS011;26174;42.908;23.800;2023-02-18T10:00:22;6.82;;;3.47;;
40471;SDS011;26174;42.908;23.800;2023-02-18T10:08:01;5.95;;;3.20;;
40471;SDS011;26174;42.908;23.800;2023-02-18T10:10:33;11.55;;;4.10;;
40471;SDS011;26174;42.908;23.800;2023-02-18T10:13:02;6.18;;;3.78;;
40471;SDS011;26174;42.908;23.800;2023-02-18T10:15:29;8.73;;;4.30;;
40471;SDS011;26174;42.908;23.800;2023-02-18T10:17:56;8.50;;;4.00;;
40471;SDS011;26174;42.908;23.800;2023-02-18T10:20:23;11.23;;;3.60;;
40471;SDS011;26174;42.908;23.800;2023-02-18T10:22:51;8.23;;;3.58;;
40471;SDS011;26174;42.908;23.800;2023-02-18T10:25:19;11.15;;;3.67;;
40471;SDS011;26174;42.908;23.800;2023-02-18T10:27:47;16.80;;;3.45;;
40471;SDS011;26174;42.908;23.800;2023-02-18T10:39:08;19.52;;;10.73;;
40471;SDS011;26174;42.908;23.800;2023-02-18T10:54:22;10.15;;;3.83;;
40471;SDS011;26174;42.908;23.800;2023-02-18T10:56:50;5.57;;;2.90;;
40471;SDS011;26174;42.908;23.800;2023-02-18T10:59:37;7.80;;;2.88;;
40471;SDS011;26174;42.908;23.800;2023-02-18T11:02:12;5.65;;;3.22;;
40471;SDS011;26174;42.908;23.800;2023-02-18T11:04:41;4.38;;;2.72;;
40471;SDS011;26174;42.908;23.800;2023-02-18T11:07:15;5.65;;;2.50;;
40471;SDS011;26174;42.908;23.800;2023-02-18T11:09:56;7.07;;;2.83;;
40471;SDS011;26174;42.908;23.800;2023-02-18T11:12:32;8.32;;;4.15;;
40471;SDS011;26174;42.908;23.800;2023-02-18T11:15:18;10.75;;;3.88;;
40471;SDS011;26174;42.908;23.800;2023-02-18T11:17:49;4.97;;;3.17;;
40471;SDS011;26174;42.908;23.800;2023-02-18T11:20:27;6.95;;;2.97;;
40471;SDS011;26174;42.908;23.800;2023-02-18T11:25:38;9.35;;;2.90;;
40471;SDS011;26174;42.908;23.800;2023-02-18T11:30:40;13.90;;;3.22;;
40471;SDS011;26174;42.908;23.800;2023-02-18T11:33:08;5.07;;;2.92;;
40471;SDS011;26174;42.908;23.800;2023-02-18T11:35:35;6.10;;;3.00;;
40471;SDS011;26174;42.908;23.800;2023-02-18T11:38:02;5.88;;;3.50;;
40471;SDS011;26174;42.908;23.800;2023-02-18T11:40:51;6.28;;;3.50;;
40471;SDS011;26174;42.908;23.800;2023-02-18T11:43:19;6.45;;;2.97;;
40471;SDS011;26174;42.908;23.800;2023-02-18T11:45:44;4.95;;;3.03;;
40471;SDS011;26174;42.908;23.800;2023-02-18T11:50:44;19.33;;;10.10;;
40471;SDS011;26174;42.908;23.800;2023-02-18T11:55:59;7.70;;;3.40;;
40471;SDS011;26174;42.908;23.800;2023-02-18T11:58:27;3.90;;;2.55;;
40471;SDS011;26174;42.908;23.800;2023-02-18T12:00:59;6.15;;;3.22;;
40471;SDS011;26174;42.908;23.800;2023-02-18T12:06:02;3.50;;;2.63;;
40471;SDS011;26174;42.908;23.800;2023-02-18T12:08:38;7.45;;;3.40;;
40471;SDS011;26174;42.908;23.800;2023-02-18T12:11:42;19.15;;;10.23;;
40471;SDS011;26174;42.908;23.800;2023-02-18T12:14:21;7.30;;;3.30;;
40471;SDS011;26174;42.908;23.800;2023-02-18T12:25:21;6.10;;;3.17;;
40471;SDS011;26174;42.908;23.800;2023-02-18T12:28:08;7.40;;;3.35;;
40471;SDS011;26174;42.908;23.800;2023-02-18T12:40:20;6.03;;;3.75;;
40471;SDS011;26174;42.908;23.800;2023-02-18T12:42:53;9.25;;;3.33;;
40471;SDS011;26174;42.908;23.800;2023-02-18T12:45:49;9.73;;;3.60;;
40471;SDS011;26174;42.908;23.800;2023-02-18T12:51:10;11.32;;;4.30;;
40471;SDS011;26174;42.908;23.800;2023-02-18T12:53:45;10.48;;;3.40;;
40471;SDS011;26174;42.908;23.800;2023-02-18T13:04:51;4.95;;;2.88;;
40471;SDS011;26174;42.908;23.800;2023-02-18T13:13:09;10.52;;;3.75;;
40471;SDS011;26174;42.908;23.800;2023-02-18T13:15:42;8.43;;;3.72;;
40471;SDS011;26174;42.908;23.800;2023-02-18T13:18:14;6.75;;;3.80;;
40471;SDS011;26174;42.908;23.800;2023-02-18T13:21:03;5.82;;;3.28;;
40471;SDS011;26174;42.908;23.800;2023-02-18T13:23:31;5.72;;;3.05;;
40471;SDS011;26174;42.908;23.800;2023-02-18T13:26:00;9.38;;;3.92;;
40471;SDS011;26174;42.908;23.800;2023-02-18T13:28:41;11.50;;;4.03;;
40471;SDS011;26174;42.908;23.800;2023-02-18T13:34:28;5.63;;;3.22;;
40471;SDS011;26174;42.908;23.800;2023-02-18T13:37:02;6.53;;;3.15;;
40471;SDS011;26174;42.908;23.800;2023-02-18T13:39:49;9.10;;;4.00;;
40471;SDS011;26174;42.908;23.800;2023-02-18T13:47:36;9.02;;;4.30;;
40471;SDS011;26174;42.908;23.800;2023-02-18T13:53:33;6.95;;;3.25;;
40471;SDS011;26174;42.908;23.800;2023-02-18T13:58:30;5.68;;;3.17;;
40471;SDS011;26174;42.908;23.800;2023-02-18T14:03:49;7.55;;;4.20;;
40471;SDS011;26174;42.908;23.800;2023-02-18T14:08:48;6.68;;;3.35;;
40471;SDS011;26174;42.908;23.800;2023-02-18T14:16:23;6.97;;;3.67;;
40471;SDS011;26174;42.908;23.800;2023-02-18T14:18:57;7.55;;;3.88;;
40471;SDS011;26174;42.908;23.800;2023-02-18T14:21:34;10.85;;;4.00;;
40471;SDS011;26174;42.908;23.800;2023-02-18T14:24:01;8.25;;;4.07;;
40471;SDS011;26174;42.908;23.800;2023-02-18T14:26:29;10.40;;;4.07;;
40471;SDS011;26174;42.908;23.800;2023-02-18T14:29:00;7.80;;;3.40;;
40471;SDS011;26174;42.908;23.800;2023-02-18T14:34:07;5.65;;;3.20;;
40471;SDS011;26174;42.908;23.800;2023-02-18T14:45:17;10.90;;;4.63;;
40471;SDS011;26174;42.908;23.800;2023-02-18T14:48:08;6.05;;;3.03;;
40471;SDS011;26174;42.908;23.800;2023-02-18T14:50:37;5.78;;;3.10;;
40471;SDS011;26174;42.908;23.800;2023-02-18T14:53:27;6.03;;;3.05;;
40471;SDS011;26174;42.908;23.800;2023-02-18T14:56:02;7.15;;;3.50;;
40471;SDS011;26174;42.908;23.800;2023-02-18T14:58:40;8.55;;;3.92;;
40471;SDS011;26174;42.908;23.800;2023-02-18T15:01:16;7.40;;;4.22;;
40471;SDS011;26174;42.908;23.800;2023-02-18T15:03:50;6.65;;;3.65;;
40471;SDS011;26174;42.908;23.800;2023-02-18T15:08:52;6.43;;;3.13;;
40471;SDS011;26174;42.908;23.800;2023-02-18T15:11:18;6.93;;;3.70;;
40471;SDS011;26174;42.908;23.800;2023-02-18T15:13:45;8.40;;;4.53;;
40471;SDS011;26174;42.908;23.800;2023-02-18T15:16:12;6.40;;;3.65;;
40471;SDS011;26174;42.908;23.800;2023-02-18T15:18:48;10.32;;;5.15;;
40471;SDS011;26174;42.908;23.800;2023-02-18T15:21:29;7.95;;;4.05;;
40471;SDS011;26174;42.908;23.800;2023-02-18T15:24:38;12.13;;;4.95;;
40471;SDS011;26174;42.908;23.800;2023-02-18T15:26:50;18.33;;;4.63;;
40471;SDS011;26174;42.908;23.800;2023-02-18T15:29:18;8.32;;;4.45;;
40471;SDS011;26174;42.908;23.800;2023-02-18T15:31:48;16.75;;;3.75;;
40471;SDS011;26174;42.908;23.800;2023-02-18T15:34:26;14.98;;;4.70;;
40471;SDS011;26174;42.908;23.800;2023-02-18T15:36:54;8.13;;;4.65;;
40471;SDS011;26174;42.908;23.800;2023-02-18T15:39:20;10.70;;;5.47;;
40471;SDS011;26174;42.908;23.800;2023-02-18T15:41:50;12.98;;;6.63;;
40471;SDS011;26174;42.908;23.800;2023-02-18T15:44:27;25.92;;;11.88;;
40471;SDS011;26174;42.908;23.800;2023-02-18T15:46:54;12.85;;;6.43;;
40471;SDS011;26174;42.908;23.800;2023-02-18T15:49:24;11.65;;;5.80;;
40471;SDS011;26174;42.908;23.800;2023-02-18T15:51:50;13.65;;;6.40;;
40471;SDS011;26174;42.908;23.800;2023-02-18T15:54:21;14.32;;;6.80;;
40471;SDS011;26174;42.908;23.800;2023-02-18T15:56:51;10.75;;;6.10;;
40471;SDS011;26174;42.908;23.800;2023-02-18T16:02:11;10.68;;;5.35;;
40471;SDS011;26174;42.908;23.800;2023-02-18T16:04:41;10.70;;;4.57;;
40471;SDS011;26174;42.908;23.800;2023-02-18T16:07:22;9.05;;;4.18;;
40471;SDS011;26174;42.908;23.800;2023-02-18T16:13:00;9.57;;;3.72;;
40471;SDS011;26174;42.908;23.800;2023-02-18T16:15:45;7.60;;;3.90;;
40471;SDS011;26174;42.908;23.800;2023-02-18T16:20:51;11.13;;;4.93;;
40471;SDS011;26174;42.908;23.800;2023-02-18T16:23:24;11.80;;;5.70;;
40471;SDS011;26174;42.908;23.800;2023-02-18T16:25:51;10.48;;;5.57;;
40471;SDS011;26174;42.908;23.800;2023-02-18T16:30:52;14.95;;;6.93;;
40471;SDS011;26174;42.908;23.800;2023-02-18T16:33:17;11.23;;;5.63;;
40471;SDS011;26174;42.908;23.800;2023-02-18T16:35:43;12.35;;;6.25;;
40471;SDS011;26174;42.908;23.800;2023-02-18T16:38:11;25.67;;;8.65;;
40471;SDS011;26174;42.908;23.800;2023-02-18T16:40:40;19.50;;;7.90;;
40471;SDS011;26174;42.908;23.800;2023-02-18T16:43:14;16.17;;;8.15;;
40471;SDS011;26174;42.908;23.800;2023-02-18T16:45:44;13.25;;;6.07;;
40471;SDS011;26174;42.908;23.800;2023-02-18T16:48:16;11.50;;;6.07;;
40471;SDS011;26174;42.908;23.800;2023-02-18T16:50:45;16.23;;;6.15;;
40471;SDS011;26174;42.908;23.800;2023-02-18T16:53:11;12.75;;;5.78;;
40471;SDS011;26174;42.908;23.800;2023-02-18T16:55:38;16.02;;;6.70;;
40471;SDS011;26174;42.908;23.800;2023-02-18T16:58:03;10.68;;;6.13;;
40471;SDS011;26174;42.908;23.800;2023-02-18T17:00:29;13.38;;;7.25;;
40471;SDS011;26174;42.908;23.800;2023-02-18T17:02:55;15.90;;;7.72;;
40471;SDS011;26174;42.908;23.800;2023-02-18T17:05:26;12.52;;;6.60;;
40471;SDS011;26174;42.908;23.800;2023-02-18T17:07:54;11.50;;;5.93;;
40471;SDS011;26174;42.908;23.800;2023-02-18T17:10:21;35.45;;;18.02;;
40471;SDS011;26174;42.908;23.800;2023-02-18T17:12:47;23.10;;;10.77;;
40471;SDS011;26174;42.908;23.800;2023-02-18T17:15:34;16.80;;;7.97;;
40471;SDS011;26174;42.908;23.800;2023-02-18T17:17:59;16.60;;;9.50;;
40471;SDS011;26174;42.908;23.800;2023-02-18T17:20:25;10.77;;;5.90;;
40471;SDS011;26174;42.908;23.800;2023-02-18T17:22:54;31.40;;;12.27;;
40471;SDS011;26174;42.908;23.800;2023-02-18T17:25:26;12.20;;;6.35;;
40471;SDS011;26174;42.908;23.800;2023-02-18T17:27:53;24.35;;;10.48;;
40471;SDS011;26174;42.908;23.800;2023-02-18T17:30:18;87.93;;;24.30;;
40471;SDS011;26174;42.908;23.800;2023-02-18T17:32:44;23.67;;;9.93;;
40471;SDS011;26174;42.908;23.800;2023-02-18T17:35:21;15.07;;;9.30;;
40471;SDS011;26174;42.908;23.800;2023-02-18T17:37:48;18.00;;;10.05;;
40471;SDS011;26174;42.908;23.800;2023-02-18T17:40:18;19.75;;;8.95;;